Meteo Giornale » Osservazioni meteo Italia » Treviso-Istrana

ore: 15:55 - Osservazioni Meteo Treviso-Istrana
Lat. 45° 41' N Lon. 12° 6' E Alt. 45 metri s.l.m.

sereno Europe/Rome

24 °C

Sereno

Temp. 24 Ore

9 °C

24 °C

Sud-Ovest

11.1 Km/h

Dew point 8 °C

Umidità 35 %

Visibilità  10 Km

Il sole sorge alle ore 06:05

Il sole tramonta alle ore 18:30

Data e Ora Cielo e Fenomeni T °C DP °C Um. % Pres. hPa Vis. km Vento km/h
Oggi h: 15:55 sereno Sereno 24 8 35 1018 10 SO 11.1
Oggi h: 14:55 sereno Sereno 24 9 38 1018 10 SO 9.3
Oggi h: 13:55 sereno Sereno 24 9 38 1019 10 SO 7.4
Oggi h: 12:55 sereno Sereno 24 9 38 1020 10 S/SO 9.3
Oggi h: 11:55 sereno Sereno 22 9 43 1021 10 N 5.5
Oggi h: 10:55 sereno Sereno 21 9 46 1022 10 N 3.7
Oggi h: 09:55 sereno Sereno 20 8 45 1022 10 N 3.7
Oggi h: 08:55 sereno Sereno 17 10 63 1022 10 N 5.5
Oggi h: 07:55 sereno Sereno 15 11 76 1023 10 N 5.5
Oggi h: 06:55 sereno Sereno 11 7 76 1023 10 N 7.4
Oggi h: 05:55 sereno Sereno 10 8 87 1023 10 N 7.4
Oggi h: 04:55 sereno Sereno 9 9 100 1023 10 N 9.3
Oggi h: 03:55 sereno Sereno 10 9 93 1023 10 N 0
Oggi h: 01:55 sereno Sereno 11 9 87 1023 10 NE 13
Oggi h: 00:55 sereno Sereno 12 8 76 1023 10 NE 9.3
Ieri h: 23:55 sereno Sereno 12 9 81 1023 10 N 9.3
Ieri h: 22:55 sereno Sereno 13 8 71 1023 10 N/NO 7.4
Ieri h: 21:55 sereno Sereno 14 9 71 1023 10 N/NO 9.3
Ieri h: 20:55 sereno Sereno 13 8 71 1023 10 N/NO 9.3
Ieri h: 19:55 sereno Sereno 16 9 63 1023 10 N 0
Ieri h: 18:55 sereno Sereno 18 8 51 1023 10 N 5.5
Ieri h: 17:55 sereno Sereno 21 9 46 1023 10 S/SO 13
Ieri h: 16:55 sereno Sereno 22 6 35 1023 10 N 3.7